Mount Hermon, California
Current Conditions -  °F | °C
As of 11:53 PM on Tuesday 25 Nov 2014 (Local Time) from KWVI Reporting Station
Clear Clear  
Wind Chill: 51°   Ceiling: Unl
Heat Index: 51°   Visibility: 10mi
Dew Point: 43°   Wind: 3mph
Humidity: 74%   Direction: 320°NW
Pressure: 30.31"   Gusts: NA
Location:  37.05°N, 122.06°W
Report Text: KWVI 260753Z AUTO 32003KT 10SM CLR 11/06 A3031 RMK AO2 SLP264 T01060061 402390061
Loading
Personal Weather Stations






























Interactive Weather Map New forecast layout! Learn more

10-Day Weather Forecast

Advertisements
Track Severe Weather on mobile